Time,TemperatureF,DewpointF,PressureIn,WindDirection,WindDirectionDegrees,WindSpeedMPH,WindSpeedGustMPH,Humidity,HourlyPrecipIn,Conditions,Clouds,dailyrainin,SoftwareType,DateUTC
2013-10-01 00:00:00,81.4,71.9,30.00,SE,124,3.0,5.0,73,0.00,,,0.00,Wunderground v.1.15,2013-10-01 04:00:00,
2013-10-01 00:10:00,81.4,71.9,30.00,East,94,4.0,4.0,73,0.00,,,0.00,Wunderground v.1.15,2013-10-01 04:10:00,
2013-10-01 00:20:00,81.4,72.3,30.00,East,94,3.0,4.0,74,0.00,,,0.00,Wunderground v.1.15,2013-10-01 04:20:00,
2013-10-01 00:30:00,81.4,72.3,30.00,SE,127,4.0,5.0,74,0.00,,,0.00,Wunderground v.1.15,2013-10-01 04:30:00,
2013-10-01 00:40:00,81.5,72.0,30.00,ESE,115,3.0,3.0,73,0.00,,,0.00,Wunderground v.1.15,2013-10-01 04:40:00,
2013-10-01 00:50:00,81.5,72.0,29.99,SE,134,3.0,3.0,73,0.00,,,0.00,Wunderground v.1.15,2013-10-01 04:50:00,
2013-10-01 01:00:00,81.5,71.6,30.00,ESE,102,2.0,4.0,72,0.00,,,0.00,Wunderground v.1.15,2013-10-01 05:00:00,
2013-10-01 01:10:00,81.6,71.7,30.00,NE,48,3.0,3.0,72,0.00,,,0.00,Wunderground v.1.15,2013-10-01 05:10:00,
2013-10-01 01:20:00,81.6,71.3,29.99,SE,124,4.0,5.0,71,0.00,,,0.00,Wunderground v.1.15,2013-10-01 05:20:00,
2013-10-01 01:30:00,81.6,71.3,29.99,ESE,120,3.0,3.0,71,0.00,,,0.00,Wunderground v.1.15,2013-10-01 05:30:00,
2013-10-01 01:40:00,81.5,71.2,29.99,ENE,78,3.0,4.0,71,0.00,,,0.00,Wunderground v.1.15,2013-10-01 05:40:00,
2013-10-01 01:50:00,81.5,71.2,29.99,East,98,3.0,3.0,71,0.00,,,0.00,Wunderground v.1.15,2013-10-01 05:50:00,
2013-10-01 02:00:00,81.6,71.3,29.99,ESE,122,3.0,5.0,71,0.00,,,0.00,Wunderground v.1.15,2013-10-01 06:00:00,
2013-10-01 02:10:00,81.7,71.0,29.99,ESE,108,3.0,3.0,70,0.00,,,0.00,Wunderground v.1.15,2013-10-01 06:10:00,
2013-10-01 02:20:00,81.8,71.1,29.98,East,100,3.0,3.0,70,0.00,,,0.00,Wunderground v.1.15,2013-10-01 06:20:00,
2013-10-01 02:30:00,81.7,70.5,29.98,ENE,76,3.0,4.0,69,0.00,,,0.00,Wunderground v.1.15,2013-10-01 06:30:00,
2013-10-01 02:40:00,81.8,69.8,29.98,East,101,4.0,4.0,67,0.00,,,0.00,Wunderground v.1.15,2013-10-01 06:40:00,
2013-10-01 02:50:00,81.9,69.9,29.98,East,88,4.0,5.0,67,0.00,,,0.00,Wunderground v.1.15,2013-10-01 06:50:00,
2013-10-01 03:00:00,81.8,69.8,29.98,ENE,75,3.0,7.0,67,0.00,,,0.00,Wunderground v.1.15,2013-10-01 07:00:00,
2013-10-01 03:10:00,81.7,70.1,29.98,ESE,108,3.0,3.0,68,0.00,,,0.00,Wunderground v.1.15,2013-10-01 07:10:00,
2013-10-01 03:20:00,81.6,70.0,29.97,ESE,108,2.0,2.0,68,0.00,,,0.00,Wunderground v.1.15,2013-10-01 07:20:00,
2013-10-01 03:30:00,81.7,70.1,29.97,East,88,4.0,4.0,68,0.00,,,0.00,Wunderground v.1.15,2013-10-01 07:30:00,
2013-10-01 03:40:00,81.6,69.6,29.97,East,86,3.0,6.0,67,0.00,,,0.00,Wunderground v.1.15,2013-10-01 07:40:00,
2013-10-01 03:50:00,81.5,69.9,29.97,SE,124,3.0,3.0,68,0.00,,,0.00,Wunderground v.1.15,2013-10-01 07:50:00,
2013-10-01 04:00:00,81.5,69.9,29.97,East,101,3.0,3.0,68,0.00,,,0.00,Wunderground v.1.15,2013-10-01 08:00:00,
2013-10-01 04:20:00,81.2,70.9,29.97,ESE,111,3.0,3.0,71,0.00,,,0.00,Wunderground v.1.15,2013-10-01 08:20:00,
2013-10-01 04:30:00,81.1,71.2,29.97,ESE,108,3.0,3.0,72,0.00,,,0.00,Wunderground v.1.15,2013-10-01 08:30:00,
2013-10-01 04:40:00,80.9,71.4,29.97,ESE,120,2.0,2.0,73,0.00,,,0.00,Wunderground v.1.15,2013-10-01 08:40:00,
2013-10-01 04:50:00,81.0,71.5,29.97,East,88,3.0,3.0,73,0.00,,,0.00,Wunderground v.1.15,2013-10-01 08:50:00,
2013-10-01 05:00:00,80.9,71.4,29.97,East,96,2.0,2.0,73,0.00,,,0.00,Wunderground v.1.15,2013-10-01 09:00:00,
2013-10-01 05:10:00,80.9,71.4,29.97,East,97,2.0,2.0,73,0.00,,,0.00,Wunderground v.1.15,2013-10-01 09:10:00,
2013-10-01 05:20:00,81.0,71.5,29.97,East,100,3.0,3.0,73,0.00,,,0.00,Wunderground v.1.15,2013-10-01 09:20:00,
2013-10-01 05:30:00,80.9,70.6,29.98,ESE,105,3.0,6.0,71,0.00,,,0.00,Wunderground v.1.15,2013-10-01 09:30:00,
2013-10-01 05:40:00,80.9,71.0,29.98,ENE,76,3.0,4.0,72,0.00,,,0.00,Wunderground v.1.15,2013-10-01 09:40:00,
2013-10-01 05:50:00,81.0,71.1,29.98,ESE,111,4.0,4.0,72,0.00,,,0.00,Wunderground v.1.15,2013-10-01 09:50:00,
2013-10-01 06:00:00,80.9,71.0,29.98,East,99,2.0,3.0,72,0.00,,,0.00,Wunderground v.1.15,2013-10-01 10:00:00,
2013-10-01 06:20:00,80.8,70.9,29.98,SSE,156,2.0,4.0,72,0.00,,,0.00,Wunderground v.1.15,2013-10-01 10:20:00,
2013-10-01 06:30:00,80.8,71.3,29.98,ESE,111,3.0,3.0,73,0.00,,,0.00,Wunderground v.1.15,2013-10-01 10:30:00,
2013-10-01 06:40:00,80.7,71.2,29.99,ESE,104,3.0,3.0,73,0.00,,,0.00,Wunderground v.1.15,2013-10-01 10:40:00,
2013-10-01 06:50:00,80.8,71.7,29.99,ESE,103,2.0,2.0,74,0.00,,,0.00,Wunderground v.1.15,2013-10-01 10:50:00,
2013-10-01 07:00:00,80.7,71.6,29.99,ESE,108,2.0,2.0,74,0.00,,,0.00,Wunderground v.1.15,2013-10-01 11:00:00,
2013-10-01 07:10:00,80.5,71.4,29.99,East,101,1.0,1.0,74,0.00,,,0.00,Wunderground v.1.15,2013-10-01 11:10:00,
2013-10-01 07:20:00,80.1,71.8,29.99,ESE,110,1.0,1.0,76,0.00,,,0.00,Wunderground v.1.15,2013-10-01 11:20:00,
2013-10-01 07:30:00,80.6,71.9,30.00,ENE,75,0.0,2.0,75,0.00,,,0.00,Wunderground v.1.15,2013-10-01 11:30:00,
2013-10-01 07:40:00,81.3,71.8,29.99,ESE,114,1.0,1.0,73,0.00,,,0.00,Wunderground v.1.15,2013-10-01 11:40:00,
2013-10-01 07:50:00,81.8,71.5,30.00,ESE,122,2.0,2.0,71,0.00,,,0.00,Wunderground v.1.15,2013-10-01 11:50:00,
2013-10-01 08:00:00,82.3,72.0,30.00,East,99,2.0,2.0,71,0.00,,,0.00,Wunderground v.1.15,2013-10-01 12:00:00,
2013-10-01 08:10:00,82.8,72.4,30.01,ESE,104,2.0,2.0,71,0.00,,,0.00,Wunderground v.1.15,2013-10-01 12:10:00,
2013-10-01 08:20:00,83.3,72.5,30.01,East,84,2.0,4.0,70,0.00,,,0.00,Wunderground v.1.15,2013-10-01 12:20:00,
2013-10-01 08:30:00,83.4,72.2,30.01,East,81,3.0,3.0,69,0.00,,,0.00,Wunderground v.1.15,2013-10-01 12:30:00,
2013-10-01 08:40:00,83.6,72.3,30.02,ESE,121,3.0,3.0,69,0.00,,,0.00,Wunderground v.1.15,2013-10-01 12:40:00,
2013-10-01 08:50:00,84.1,72.0,30.02,ENE,76,3.0,3.0,67,0.00,,,0.00,Wunderground v.1.15,2013-10-01 12:50:00,
2013-10-01 09:00:00,84.4,72.2,30.02,East,87,3.0,3.0,67,0.00,,,0.00,Wunderground v.1.15,2013-10-01 13:00:00,
2013-10-01 09:10:00,84.4,71.8,30.02,NE,49,4.0,6.0,66,0.00,,,0.00,Wunderground v.1.15,2013-10-01 13:10:00,
2013-10-01 09:20:00,84.5,71.9,30.03,East,83,4.0,4.0,66,0.00,,,0.00,Wunderground v.1.15,2013-10-01 13:20:00,
2013-10-01 09:30:00,84.9,72.3,30.03,NE,44,3.0,5.0,66,0.00,,,0.00,Wunderground v.1.15,2013-10-01 13:30:00,
2013-10-01 09:40:00,84.8,72.2,30.03,SE,127,4.0,4.0,66,0.00,,,0.00,Wunderground v.1.15,2013-10-01 13:40:00,
2013-10-01 09:50:00,84.8,71.7,30.04,ENE,75,5.0,6.0,65,0.00,,,0.00,Wunderground v.1.15,2013-10-01 13:50:00,
2013-10-01 10:00:00,84.8,72.2,30.03,East,86,5.0,5.0,66,0.00,,,0.00,Wunderground v.1.15,2013-10-01 14:00:00,
2013-10-01 10:10:00,85.0,72.8,30.03,ENE,65,5.0,5.0,67,0.00,,,0.00,Wunderground v.1.15,2013-10-01 14:10:00,
2013-10-01 10:20:00,85.0,73.3,30.04,NNE,15,5.0,5.0,68,0.00,,,0.00,Wunderground v.1.15,2013-10-01 14:20:00,
2013-10-01 10:30:00,85.2,72.6,30.04,ENE,78,4.0,4.0,66,0.00,,,0.00,Wunderground v.1.15,2013-10-01 14:30:00,
2013-10-01 10:40:00,85.2,72.1,30.04,ENE,71,5.0,5.0,65,0.00,,,0.00,Wunderground v.1.15,2013-10-01 14:40:00,
2013-10-01 10:50:00,85.4,73.2,30.04,ENE,71,6.0,6.0,67,0.00,,,0.00,Wunderground v.1.15,2013-10-01 14:50:00,
2013-10-01 11:00:00,85.6,72.9,30.04,East,81,5.0,9.0,66,0.00,,,0.00,Wunderground v.1.15,2013-10-01 15:00:00,
2013-10-01 11:10:00,85.5,72.8,30.03,ENE,62,6.0,6.0,66,0.00,,,0.00,Wunderground v.1.15,2013-10-01 15:10:00,
2013-10-01 11:20:00,85.5,73.7,30.03,ENE,73,5.0,6.0,68,0.00,,,0.00,Wunderground v.1.15,2013-10-01 15:20:00,
2013-10-01 11:30:00,85.2,73.9,30.04,NE,54,7.0,7.0,69,0.00,,,0.00,Wunderground v.1.15,2013-10-01 15:30:00,
2013-10-01 11:40:00,84.8,73.9,30.03,NE,48,8.0,11.0,70,0.00,,,0.00,Wunderground v.1.15,2013-10-01 15:40:00,
2013-10-01 11:50:00,85.0,73.7,30.03,NE,51,7.0,7.0,69,0.00,,,0.00,Wunderground v.1.15,2013-10-01 15:50:00,
2013-10-01 12:10:00,85.2,74.3,30.03,ENE,60,7.0,8.0,70,0.00,,,0.00,Wunderground v.1.15,2013-10-01 16:10:00,
2013-10-01 12:20:00,85.3,73.1,30.03,ENE,65,7.0,7.0,67,0.00,,,0.00,Wunderground v.1.15,2013-10-01 16:20:00,
2013-10-01 12:30:00,85.7,73.9,30.03,NE,41,6.0,11.0,68,0.00,,,0.00,Wunderground v.1.15,2013-10-01 16:30:00,
2013-10-01 12:40:00,84.9,73.6,30.03,ENE,77,8.0,8.0,69,0.00,,,0.00,Wunderground v.1.15,2013-10-01 16:40:00,
2013-10-01 12:50:00,85.0,73.3,30.03,ENE,71,7.0,7.0,68,0.00,,,0.00,Wunderground v.1.15,2013-10-01 16:50:00,
2013-10-01 13:00:00,85.7,73.9,30.03,ENE,77,7.0,7.0,68,0.00,,,0.00,Wunderground v.1.15,2013-10-01 17:00:00,
2013-10-01 13:10:00,85.8,73.6,30.03,East,92,7.0,8.0,67,0.00,,,0.00,Wunderground v.1.15,2013-10-01 17:10:00,
2013-10-01 13:20:00,85.8,74.0,30.03,East,84,6.0,8.0,68,0.00,,,0.00,Wunderground v.1.15,2013-10-01 17:20:00,
2013-10-01 13:40:00,85.4,73.2,30.02,ENE,73,6.0,9.0,67,0.00,,,0.00,Wunderground v.1.15,2013-10-01 17:40:00,
2013-10-01 14:00:00,85.2,73.0,30.01,East,90,7.0,10.0,67,0.00,,,0.00,Wunderground v.1.15,2013-10-01 18:00:00,
2013-10-01 14:10:00,85.0,73.3,30.01,ENE,65,7.0,7.0,68,0.00,,,0.00,Wunderground v.1.15,2013-10-01 18:10:00,
2013-10-01 14:20:00,85.6,73.4,30.00,NE,37,6.0,6.0,67,0.00,,,0.00,Wunderground v.1.15,2013-10-01 18:20:00,
2013-10-01 14:30:00,85.3,72.6,30.00,ESE,113,7.0,7.0,66,0.00,,,0.00,Wunderground v.1.15,2013-10-01 18:30:00,
2013-10-01 14:40:00,85.1,73.3,30.00,ENE,68,8.0,8.0,68,0.00,,,0.00,Wunderground v.1.15,2013-10-01 18:40:00,
2013-10-01 14:50:00,85.5,72.4,30.00,East,89,6.0,6.0,65,0.00,,,0.00,Wunderground v.1.15,2013-10-01 18:50:00,
2013-10-01 15:00:00,85.1,73.3,30.00,ENE,76,7.0,9.0,68,0.00,,,0.00,Wunderground v.1.15,2013-10-01 19:00:00,
2013-10-01 15:10:00,85.0,72.8,30.00,East,80,6.0,7.0,67,0.00,,,0.00,Wunderground v.1.15,2013-10-01 19:10:00,
2013-10-01 15:20:00,85.0,72.4,29.99,ENE,61,7.0,10.0,66,0.00,,,0.00,Wunderground v.1.15,2013-10-01 19:20:00,
2013-10-01 15:30:00,85.5,73.7,29.99,NE,53,6.0,9.0,68,0.00,,,0.00,Wunderground v.1.15,2013-10-01 19:30:00,
2013-10-01 15:40:00,85.0,71.9,29.99,ENE,72,7.0,7.0,65,0.00,,,0.00,Wunderground v.1.15,2013-10-01 19:40:00,
2013-10-01 16:10:00,84.2,72.5,29.99,East,100,7.0,7.0,68,0.00,,,0.00,Wunderground v.1.15,2013-10-01 20:10:00,
2013-10-01 16:20:00,84.5,72.3,29.99,ESE,115,6.0,6.0,67,0.00,,,0.00,Wunderground v.1.15,2013-10-01 20:20:00,
2013-10-01 16:30:00,84.3,71.7,29.98,East,87,7.0,7.0,66,0.00,,,0.00,Wunderground v.1.15,2013-10-01 20:30:00,
2013-10-01 16:40:00,84.3,71.7,29.98,ENE,64,7.0,8.0,66,0.00,,,0.00,Wunderground v.1.15,2013-10-01 20:40:00,
2013-10-01 16:50:00,83.7,72.0,29.98,East,94,7.0,7.0,68,0.00,,,0.00,Wunderground v.1.15,2013-10-01 20:50:00,
2013-10-01 17:00:00,83.6,71.0,29.98,NE,34,7.0,7.0,66,0.00,,,0.00,Wunderground v.1.15,2013-10-01 21:00:00,
2013-10-01 17:10:00,83.4,71.7,29.98,ENE,73,7.0,7.0,68,0.00,,,0.00,Wunderground v.1.15,2013-10-01 21:10:00,
2013-10-01 17:20:00,83.6,71.5,29.98,ESE,103,6.0,7.0,67,0.00,,,0.00,Wunderground v.1.15,2013-10-01 21:20:00,
2013-10-01 17:30:00,83.4,71.7,29.99,NE,37,7.0,10.0,68,0.00,,,0.00,Wunderground v.1.15,2013-10-01 21:30:00,
2013-10-01 17:40:00,83.4,71.3,29.99,NE,43,8.0,10.0,67,0.00,,,0.00,Wunderground v.1.15,2013-10-01 21:40:00,
2013-10-01 17:50:00,83.4,71.7,29.99,ENE,78,7.0,7.0,68,0.00,,,0.00,Wunderground v.1.15,2013-10-01 21:50:00,
2013-10-01 18:00:00,83.3,71.6,29.99,ENE,62,7.0,11.0,68,0.00,,,0.00,Wunderground v.1.15,2013-10-01 22:00:00,
2013-10-01 18:10:00,83.1,71.4,29.99,NE,51,7.0,8.0,68,0.00,,,0.00,Wunderground v.1.15,2013-10-01 22:10:00,
2013-10-01 18:20:00,83.0,71.3,30.00,NE,56,7.0,7.0,68,0.00,,,0.00,Wunderground v.1.15,2013-10-01 22:20:00,
2013-10-01 18:30:00,82.5,71.3,30.00,ENE,67,7.0,7.0,69,0.00,,,0.00,Wunderground v.1.15,2013-10-01 22:30:00,
2013-10-01 18:40:00,82.5,71.3,30.00,ENE,70,6.0,6.0,69,0.00,,,0.00,Wunderground v.1.15,2013-10-01 22:40:00,
2013-10-01 18:50:00,82.3,71.5,30.01,ENE,70,6.0,6.0,70,0.00,,,0.00,Wunderground v.1.15,2013-10-01 22:50:00,
2013-10-01 19:00:00,82.1,71.3,30.01,NE,47,5.0,5.0,70,0.00,,,0.00,Wunderground v.1.15,2013-10-01 23:00:00,
2013-10-01 19:10:00,82.1,71.3,30.02,East,79,5.0,5.0,70,0.00,,,0.00,Wunderground v.1.15,2013-10-01 23:10:00,
2013-10-01 19:20:00,82.0,71.2,30.02,East,84,6.0,6.0,70,0.00,,,0.00,Wunderground v.1.15,2013-10-01 23:20:00,
2013-10-01 19:30:00,81.9,71.2,30.02,ENE,75,6.0,7.0,70,0.00,,,0.00,Wunderground v.1.15,2013-10-01 23:30:00,
2013-10-01 19:40:00,81.9,71.2,30.02,ENE,77,6.0,6.0,70,0.00,,,0.00,Wunderground v.1.15,2013-10-01 23:40:00,
2013-10-01 19:50:00,81.8,71.9,30.02,East,86,6.0,6.0,72,0.00,,,0.00,Wunderground v.1.15,2013-10-01 23:50:00,
2013-10-01 20:00:00,81.7,71.4,30.01,NE,51,5.0,9.0,71,0.00,,,0.00,Wunderground v.1.15,2013-10-02 00:00:00,
2013-10-01 20:10:00,81.6,71.7,30.01,NE,41,6.0,7.0,72,0.00,,,0.00,Wunderground v.1.15,2013-10-02 00:10:00,
2013-10-01 20:20:00,81.6,71.7,30.01,ENE,70,7.0,7.0,72,0.00,,,0.00,Wunderground v.1.15,2013-10-02 00:20:00,
2013-10-01 20:30:00,81.5,71.6,30.01,ENE,75,6.0,6.0,72,0.00,,,0.00,Wunderground v.1.15,2013-10-02 00:30:00,
2013-10-01 20:40:00,81.5,71.6,30.01,ENE,75,6.0,6.0,72,0.00,,,0.00,Wunderground v.1.15,2013-10-02 00:40:00,
2013-10-01 20:50:00,81.4,71.9,30.01,ENE,70,6.0,6.0,73,0.00,,,0.00,Wunderground v.1.15,2013-10-02 00:50:00,
2013-10-01 21:00:00,81.4,71.9,30.01,ENE,67,5.0,5.0,73,0.00,,,0.00,Wunderground v.1.15,2013-10-02 01:00:00,
2013-10-01 21:10:00,81.4,71.9,30.02,ENE,57,6.0,6.0,73,0.00,,,0.00,Wunderground v.1.15,2013-10-02 01:10:00,
2013-10-01 21:20:00,81.4,71.9,30.02,East,88,7.0,8.0,73,0.00,,,0.00,Wunderground v.1.15,2013-10-02 01:20:00,
2013-10-01 21:30:00,81.4,71.9,30.03,East,83,6.0,6.0,73,0.00,,,0.00,Wunderground v.1.15,2013-10-02 01:30:00,
2013-10-01 21:40:00,81.4,71.9,30.03,ENE,76,5.0,5.0,73,0.00,,,0.00,Wunderground v.1.15,2013-10-02 01:40:00,
2013-10-01 21:50:00,81.5,72.4,30.04,ENE,78,6.0,6.0,74,0.00,,,0.00,Wunderground v.1.15,2013-10-02 01:50:00,
2013-10-01 22:00:00,81.5,71.6,30.04,East,86,7.0,7.0,72,0.00,,,0.00,Wunderground v.1.15,2013-10-02 02:00:00,
2013-10-01 22:10:00,81.5,72.0,30.04,East,90,6.0,6.0,73,0.00,,,0.00,Wunderground v.1.15,2013-10-02 02:10:00,
2013-10-01 22:20:00,81.5,72.0,30.04,ENE,73,7.0,9.0,73,0.00,,,0.00,Wunderground v.1.15,2013-10-02 02:20:00,
2013-10-01 22:30:00,81.5,72.0,30.04,ENE,72,6.0,8.0,73,0.00,,,0.00,Wunderground v.1.15,2013-10-02 02:30:00,
2013-10-01 22:40:00,81.5,72.4,30.04,ENE,74,7.0,7.0,74,0.00,,,0.00,Wunderground v.1.15,2013-10-02 02:40:00,
2013-10-01 22:50:00,81.4,71.5,30.04,ENE,77,6.0,9.0,72,0.00,,,0.00,Wunderground v.1.15,2013-10-02 02:50:00,
2013-10-01 23:00:00,81.4,71.5,30.04,ENE,57,6.0,19.0,72,0.00,,,0.00,Wunderground v.1.15,2013-10-02 03:00:00,
2013-10-01 23:10:00,81.4,71.5,30.03,East,82,7.0,7.0,72,0.00,,,0.00,Wunderground v.1.15,2013-10-02 03:10:00,
2013-10-01 23:20:00,81.4,71.9,30.03,SE,129,7.0,7.0,73,0.00,,,0.00,Wunderground v.1.15,2013-10-02 03:20:00,
2013-10-01 23:30:00,81.3,71.8,30.03,ESE,118,7.0,9.0,73,0.00,,,0.00,Wunderground v.1.15,2013-10-02 03:30:00,
2013-10-01 23:40:00,81.2,71.7,30.03,ENE,57,6.0,7.0,73,0.00,,,0.00,Wunderground v.1.15,2013-10-02 03:40:00,
2013-10-01 23:50:00,81.3,72.2,30.03,East,96,7.0,7.0,74,0.00,,,0.00,Wunderground v.1.15,2013-10-02 03:50:00,